createdAt,value
2023-03-13T00:01:13.998Z,1.40
2023-03-13T00:03:43.346Z,1.47
2023-03-13T00:06:11.392Z,1.23
2023-03-13T00:08:39.374Z,0.83
2023-03-13T00:11:08.454Z,1.10
2023-03-13T00:13:36.488Z,0.70
2023-03-13T00:16:05.608Z,0.80
2023-03-13T00:18:33.877Z,0.70
2023-03-13T00:21:05.176Z,1.70
2023-03-13T00:23:37.326Z,2.03
2023-03-13T00:26:07.209Z,2.63
2023-03-13T00:28:36.262Z,3.30
2023-03-13T00:31:05.224Z,4.30
2023-03-13T00:33:34.379Z,3.53
2023-03-13T00:36:05.764Z,4.40
2023-03-13T00:38:34.404Z,3.17
2023-03-13T00:41:03.532Z,4.07
2023-03-13T00:43:31.927Z,3.53
2023-03-13T00:46:00.594Z,3.73
2023-03-13T00:48:29.459Z,3.60
2023-03-13T00:50:57.506Z,3.43
2023-03-13T00:53:26.880Z,3.40
2023-03-13T00:55:56.867Z,3.47
2023-03-13T00:58:25.964Z,3.77
2023-03-13T01:00:54.289Z,3.60
2023-03-13T01:03:25.619Z,4.03
2023-03-13T01:05:58.000Z,4.20
2023-03-13T01:08:28.005Z,3.97
2023-03-13T01:11:00.459Z,4.67
2023-03-13T01:13:29.196Z,4.63
2023-03-13T01:15:57.404Z,3.60
2023-03-13T01:18:25.314Z,4.00
2023-03-13T01:20:54.340Z,4.40
2023-03-13T01:23:22.188Z,3.47
2023-03-13T01:25:51.585Z,4.43
2023-03-13T01:28:19.811Z,4.40
2023-03-13T01:30:47.909Z,2.43
2023-03-13T01:33:16.345Z,2.57
2023-03-13T01:35:44.651Z,3.70
2023-03-13T01:38:12.643Z,3.80
2023-03-13T01:40:42.193Z,4.50
2023-03-13T01:43:27.080Z,4.20
2023-03-13T01:46:02.170Z,3.30
2023-03-13T01:48:39.553Z,3.83
2023-03-13T01:51:11.650Z,6.07
2023-03-13T01:53:44.559Z,4.63
2023-03-13T01:56:18.551Z,5.30
2023-03-13T01:58:50.403Z,5.37
2023-03-13T02:01:20.010Z,4.27
2023-03-13T02:03:50.405Z,4.30
2023-03-13T02:06:19.695Z,3.80
2023-03-13T02:08:52.773Z,5.23
2023-03-13T02:11:27.311Z,5.13
2023-03-13T02:13:57.735Z,5.27
2023-03-13T02:16:26.488Z,4.90
2023-03-13T02:18:54.908Z,5.77
2023-03-13T02:21:36.638Z,5.27
2023-03-13T02:24:15.114Z,5.83
2023-03-13T02:26:44.430Z,5.13
2023-03-13T02:29:18.438Z,4.63
2023-03-13T02:31:48.602Z,4.53
2023-03-13T02:34:20.625Z,5.60
2023-03-13T02:36:50.373Z,4.63
2023-03-13T02:39:21.742Z,6.17
2023-03-13T02:41:52.949Z,5.50
2023-03-13T02:44:20.824Z,6.43
2023-03-13T02:46:52.557Z,6.70
2023-03-13T02:49:29.121Z,4.23
2023-03-13T02:52:01.286Z,5.43
2023-03-13T02:54:34.408Z,4.93
2023-03-13T02:57:06.214Z,5.93
2023-03-13T02:59:34.937Z,4.93
2023-03-13T03:02:03.413Z,5.90
2023-03-13T03:04:32.163Z,7.67
2023-03-13T03:07:00.684Z,6.60
2023-03-13T03:09:28.544Z,3.97
2023-03-13T03:11:56.625Z,4.60
2023-03-13T03:14:26.069Z,4.53
2023-03-13T03:16:53.987Z,6.57
2023-03-13T03:19:21.907Z,5.03
2023-03-13T03:21:49.795Z,5.87
2023-03-13T03:24:17.728Z,6.47
2023-03-13T03:26:46.096Z,5.77
2023-03-13T03:29:14.294Z,4.37
2023-03-13T03:31:43.785Z,6.90
2023-03-13T03:34:12.046Z,5.33
2023-03-13T03:36:39.920Z,5.60
2023-03-13T03:39:07.733Z,5.40
2023-03-13T03:41:35.963Z,6.23
2023-03-13T03:44:03.808Z,5.20
2023-03-13T03:46:32.032Z,6.97
2023-03-13T03:49:01.367Z,8.33
2023-03-13T03:51:29.280Z,7.27
2023-03-13T03:53:57.476Z,7.57
2023-03-13T03:56:25.798Z,8.43
2023-03-13T03:58:53.686Z,5.60
2023-03-13T04:01:21.806Z,7.17
2023-03-13T04:03:50.278Z,6.47
2023-03-13T04:06:19.726Z,6.90
2023-03-13T04:08:47.595Z,7.83
2023-03-13T04:11:15.782Z,7.57
2023-03-13T04:13:43.652Z,7.30
2023-03-13T04:16:12.341Z,8.30
2023-03-13T04:18:40.262Z,7.80
2023-03-13T04:21:08.259Z,9.20
2023-03-13T04:23:37.532Z,7.67
2023-03-13T04:26:05.854Z,8.17
2023-03-13T04:28:33.686Z,9.07
2023-03-13T04:31:01.712Z,9.23
2023-03-13T04:33:30.507Z,7.83
2023-03-13T04:35:58.392Z,7.33
2023-03-13T04:38:26.312Z,7.53
2023-03-13T04:40:55.870Z,9.47
2023-03-13T04:43:23.913Z,8.37
2023-03-13T04:45:54.638Z,6.90
2023-03-13T04:48:22.614Z,7.03
2023-03-13T04:50:51.081Z,7.10
2023-03-13T04:53:19.627Z,6.53
2023-03-13T04:55:49.685Z,7.37
2023-03-13T04:58:19.268Z,7.27
2023-03-13T05:00:47.172Z,7.20
2023-03-13T05:03:15.070Z,6.73
2023-03-13T05:05:42.950Z,6.33
2023-03-13T05:08:11.361Z,6.97
2023-03-13T05:10:39.361Z,6.10
2023-03-13T05:13:07.247Z,7.57
2023-03-13T05:15:36.862Z,7.87
2023-03-13T05:18:06.305Z,7.50
2023-03-13T05:20:34.581Z,8.33
2023-03-13T05:23:02.552Z,8.50
2023-03-13T05:25:31.033Z,7.07
2023-03-13T05:27:58.898Z,7.20
2023-03-13T05:30:26.769Z,6.63
2023-03-13T05:32:56.247Z,8.47
2023-03-13T05:35:24.476Z,8.97
2023-03-13T05:37:52.502Z,9.37
2023-03-13T05:40:20.706Z,7.90
2023-03-13T05:42:49.038Z,7.10
2023-03-13T05:45:17.066Z,10.47
2023-03-13T05:47:45.149Z,8.77
2023-03-13T05:50:14.862Z,7.53
2023-03-13T05:52:43.269Z,8.93
2023-03-13T05:55:11.341Z,8.27
2023-03-13T05:57:39.524Z,8.50
2023-03-13T06:00:08.682Z,7.57
2023-03-13T06:02:36.588Z,8.50
2023-03-13T06:05:04.823Z,6.90
2023-03-13T06:07:34.388Z,10.67
2023-03-13T06:10:02.603Z,9.17
2023-03-13T06:12:30.538Z,7.40
2023-03-13T06:14:58.773Z,8.23
2023-03-13T06:17:26.858Z,7.60
2023-03-13T06:19:54.713Z,8.00
2023-03-13T06:22:22.624Z,8.47
2023-03-13T06:24:52.259Z,9.87
2023-03-13T06:27:20.129Z,7.20
2023-03-13T06:29:48.284Z,9.60
2023-03-13T06:32:16.442Z,9.93
2023-03-13T06:34:44.467Z,9.93
2023-03-13T06:37:12.405Z,9.23
2023-03-13T06:39:40.615Z,10.40
2023-03-13T06:42:10.130Z,9.10
2023-03-13T06:44:38.636Z,9.17
2023-03-13T06:47:06.901Z,10.37
2023-03-13T06:49:34.856Z,9.63
2023-03-13T06:52:02.821Z,9.57
2023-03-13T06:54:30.730Z,10.13
2023-03-13T06:56:58.608Z,9.83
2023-03-13T06:59:28.342Z,8.30
2023-03-13T07:01:56.380Z,9.70
2023-03-13T07:04:24.336Z,9.27
2023-03-13T07:06:52.623Z,8.27
2023-03-13T07:09:21.069Z,8.03
2023-03-13T07:11:49.267Z,10.47
2023-03-13T07:14:17.779Z,8.30
2023-03-13T07:16:47.850Z,9.70
2023-03-13T07:19:16.392Z,8.37
2023-03-13T07:21:44.486Z,8.97
2023-03-13T07:24:12.690Z,9.50
2023-03-13T07:26:46.469Z,8.07
2023-03-13T07:29:22.497Z,10.67
2023-03-13T07:31:51.948Z,10.23
2023-03-13T07:34:20.023Z,10.40
2023-03-13T07:36:47.897Z,11.83
2023-03-13T07:39:15.992Z,8.57
2023-03-13T07:41:43.979Z,9.90
2023-03-13T07:44:11.983Z,8.67
2023-03-13T07:46:39.938Z,9.17
2023-03-13T07:49:10.112Z,11.80
2023-03-13T07:51:43.987Z,12.87
2023-03-13T07:54:12.546Z,8.23
2023-03-13T07:56:41.062Z,8.53
2023-03-13T07:59:09.473Z,10.20
2023-03-13T08:01:38.015Z,11.23
2023-03-13T08:04:06.393Z,9.77
2023-03-13T08:06:36.837Z,8.57
2023-03-13T08:09:05.617Z,6.50
2023-03-13T08:11:34.051Z,7.37
2023-03-13T08:14:02.080Z,8.00
2023-03-13T08:16:31.662Z,8.37
2023-03-13T08:19:00.693Z,8.00
2023-03-13T08:21:30.199Z,10.77
2023-03-13T08:24:01.512Z,9.47
2023-03-13T08:26:31.027Z,10.03
2023-03-13T08:29:00.394Z,11.23
2023-03-13T08:31:30.457Z,10.47
2023-03-13T08:33:58.786Z,11.20
2023-03-13T08:36:28.741Z,9.73
2023-03-13T08:38:59.521Z,10.47
2023-03-13T08:41:30.948Z,9.83
2023-03-13T08:43:59.666Z,10.23
2023-03-13T08:46:30.636Z,7.87
2023-03-13T08:48:58.842Z,8.63
2023-03-13T08:51:28.685Z,10.33
2023-03-13T08:53:57.674Z,9.47
2023-03-13T08:56:30.455Z,10.40
2023-03-13T08:59:01.096Z,10.00
2023-03-13T09:01:31.596Z,8.83
2023-03-13T09:04:03.585Z,9.03
2023-03-13T09:06:32.050Z,8.43
2023-03-13T09:08:59.986Z,9.70
2023-03-13T09:11:29.810Z,10.77
2023-03-13T09:13:59.417Z,9.90
2023-03-13T09:16:28.848Z,9.40
2023-03-13T09:18:58.028Z,9.10
2023-03-13T09:21:27.738Z,9.33
2023-03-13T09:23:55.876Z,10.67
2023-03-13T09:26:24.507Z,11.70
2023-03-13T09:28:54.864Z,10.43
2023-03-13T09:31:24.933Z,8.77
2023-03-13T09:33:53.444Z,9.53
2023-03-13T09:36:22.881Z,8.27
2023-03-13T09:38:51.795Z,10.00
2023-03-13T09:41:27.391Z,10.27
2023-03-13T09:44:03.275Z,7.87
2023-03-13T09:46:39.018Z,9.00
2023-03-13T09:49:17.925Z,8.93
2023-03-13T09:51:50.705Z,11.73
2023-03-13T09:54:25.992Z,8.20
2023-03-13T09:56:58.685Z,8.00
2023-03-13T09:59:46.298Z,10.47
2023-03-13T10:02:22.979Z,8.77
2023-03-13T10:04:55.350Z,9.80
2023-03-13T10:07:23.472Z,10.23
2023-03-13T10:09:51.951Z,7.73
2023-03-13T10:12:22.098Z,7.13
2023-03-13T10:15:01.803Z,10.37
2023-03-13T10:17:34.598Z,7.53
2023-03-13T10:20:10.991Z,10.70
2023-03-13T10:22:39.715Z,7.87
2023-03-13T10:25:16.599Z,8.83
2023-03-13T10:27:46.614Z,9.47
2023-03-13T10:30:24.949Z,8.50
2023-03-13T10:32:55.687Z,9.27
2023-03-13T10:35:27.664Z,8.77
2023-03-13T10:38:04.691Z,9.50
2023-03-13T10:40:32.822Z,8.97
2023-03-13T10:43:07.034Z,8.37
2023-03-13T10:45:39.197Z,10.40
2023-03-13T10:48:14.200Z,9.70
2023-03-13T10:50:44.953Z,11.10
2023-03-13T10:53:27.513Z,9.43
2023-03-13T10:55:56.877Z,11.27
2023-03-13T10:58:31.762Z,8.50
2023-03-13T11:01:18.543Z,9.83
2023-03-13T11:03:47.912Z,9.60
2023-03-13T11:06:30.606Z,8.03
2023-03-13T11:09:13.267Z,7.57
2023-03-13T11:11:49.148Z,10.37
2023-03-13T11:14:19.599Z,7.17
2023-03-13T11:16:55.781Z,9.03
2023-03-13T11:19:54.511Z,7.90
2023-03-13T11:22:47.363Z,7.83
2023-03-13T11:25:21.979Z,9.80
2023-03-13T11:27:59.630Z,8.43
2023-03-13T11:30:50.678Z,7.70
2023-03-13T11:33:30.370Z,7.57
2023-03-13T11:36:04.479Z,9.23
2023-03-13T11:38:38.843Z,7.83
2023-03-13T11:41:22.545Z,8.93
2023-03-13T11:44:01.618Z,8.10
2023-03-13T11:46:46.983Z,6.93
2023-03-13T11:49:35.661Z,8.33
2023-03-13T11:52:17.943Z,9.67
2023-03-13T11:54:59.957Z,6.30
2023-03-13T11:57:30.979Z,6.73
2023-03-13T12:00:17.448Z,6.33
2023-03-13T12:02:51.506Z,6.93
2023-03-13T12:05:22.090Z,7.20
2023-03-13T12:07:55.707Z,5.50
2023-03-13T12:10:29.125Z,5.47
2023-03-13T12:13:04.796Z,4.70
2023-03-13T12:15:37.129Z,4.33
2023-03-13T12:18:13.777Z,5.50
2023-03-13T12:20:50.189Z,7.70
2023-03-13T12:23:25.173Z,8.53
2023-03-13T12:25:56.598Z,7.10
2023-03-13T12:28:35.408Z,9.10
2023-03-13T12:31:15.385Z,7.37
2023-03-13T12:33:48.127Z,8.20
2023-03-13T12:36:21.838Z,8.60
2023-03-13T12:38:58.285Z,9.77
2023-03-13T12:41:32.037Z,9.03
2023-03-13T12:44:08.646Z,7.87
2023-03-13T12:46:42.473Z,10.67
2023-03-13T12:49:38.092Z,11.03
2023-03-13T12:52:32.561Z,8.07
2023-03-13T12:55:24.909Z,7.57
2023-03-13T12:58:11.027Z,8.53
2023-03-13T13:00:42.696Z,6.33
2023-03-13T13:03:21.912Z,7.33
2023-03-13T13:06:06.138Z,6.37
2023-03-13T13:08:43.837Z,5.37
2023-03-13T13:11:48.367Z,7.53
2023-03-13T13:14:59.312Z,7.07
2023-03-13T13:17:47.215Z,6.47
2023-03-13T13:20:39.178Z,6.43
2023-03-13T13:23:23.265Z,6.93
2023-03-13T13:25:54.394Z,5.13
2023-03-13T13:28:33.457Z,6.00
2023-03-13T13:31:02.150Z,5.50
2023-03-13T13:33:39.034Z,6.90
2023-03-13T13:36:30.724Z,5.60
2023-03-13T13:38:59.928Z,5.07
2023-03-13T13:41:36.701Z,6.23
2023-03-13T13:44:23.960Z,5.47
2023-03-13T13:46:52.526Z,5.63
2023-03-13T13:49:22.224Z,6.73
2023-03-13T13:52:37.144Z,5.77
2023-03-13T13:55:32.918Z,6.07
2023-03-13T13:58:05.185Z,6.13
2023-03-13T14:00:41.160Z,5.57
2023-03-13T14:03:20.620Z,4.30
2023-03-13T14:05:50.807Z,4.20
2023-03-13T14:08:24.153Z,3.83
2023-03-13T14:11:05.023Z,3.10
2023-03-13T14:13:34.540Z,3.33
2023-03-13T14:16:24.102Z,2.67
2023-03-13T14:18:52.900Z,3.27
2023-03-13T14:21:23.836Z,3.93
2023-03-13T14:23:52.209Z,3.47
2023-03-13T14:26:22.318Z,3.57
2023-03-13T14:28:53.743Z,3.37
2023-03-13T14:31:27.167Z,4.00
2023-03-13T14:33:56.901Z,4.57
2023-03-13T14:36:25.392Z,4.33
2023-03-13T14:38:55.396Z,5.67
2023-03-13T14:41:31.554Z,3.97
2023-03-13T14:44:15.134Z,5.17
2023-03-13T14:46:45.294Z,6.90
2023-03-13T14:49:21.156Z,4.63
2023-03-13T14:51:59.339Z,6.33
2023-03-13T14:54:30.614Z,6.63
2023-03-13T14:57:13.921Z,4.57
2023-03-13T14:59:43.702Z,4.60
2023-03-13T15:02:20.065Z,6.10
2023-03-13T15:05:00.347Z,4.10
2023-03-13T15:07:36.918Z,7.03
2023-03-13T15:10:20.045Z,4.63
2023-03-13T15:12:48.778Z,4.47
2023-03-13T15:15:18.186Z,5.20
2023-03-13T15:17:46.352Z,4.27
2023-03-13T15:20:16.161Z,5.03
2023-03-13T15:22:46.270Z,5.33
2023-03-13T15:25:17.397Z,6.53
2023-03-13T15:27:45.640Z,5.80
2023-03-13T15:30:19.184Z,5.27
2023-03-13T15:32:48.150Z,5.47
2023-03-13T15:35:28.859Z,4.83
2023-03-13T15:37:57.302Z,3.63
2023-03-13T15:40:26.083Z,5.83
2023-03-13T15:42:54.592Z,6.37
2023-03-13T15:45:24.009Z,4.20
2023-03-13T15:47:52.406Z,5.07
2023-03-13T15:50:22.454Z,4.63
2023-03-13T15:52:50.524Z,5.57
2023-03-13T15:55:18.558Z,5.00
2023-03-13T15:57:48.372Z,5.70
2023-03-13T16:00:19.952Z,5.57
2023-03-13T16:02:52.054Z,4.83
2023-03-13T16:05:20.315Z,4.80
2023-03-13T16:07:48.416Z,5.27
2023-03-13T16:10:19.163Z,5.23
2023-03-13T16:12:47.030Z,6.33
2023-03-13T16:15:14.998Z,5.73
2023-03-13T16:17:43.042Z,5.27
2023-03-13T16:20:17.101Z,7.17
2023-03-13T16:22:45.635Z,5.03
2023-03-13T16:25:14.403Z,6.23
2023-03-13T16:27:42.892Z,5.27
2023-03-13T16:30:35.454Z,6.13
2023-03-13T16:33:03.515Z,5.30
2023-03-13T16:35:35.584Z,5.00
2023-03-13T16:38:03.852Z,5.53
2023-03-13T16:40:34.167Z,6.53
2023-03-13T16:43:02.686Z,5.63
2023-03-13T16:45:30.908Z,6.00
2023-03-13T16:47:58.962Z,6.27
2023-03-13T16:50:30.214Z,5.43
2023-03-13T16:52:59.585Z,5.57
2023-03-13T16:55:29.758Z,5.50
2023-03-13T16:57:58.373Z,6.20
2023-03-13T17:00:28.516Z,5.87
2023-03-13T17:02:57.655Z,4.43
2023-03-13T17:05:27.114Z,7.07
2023-03-13T17:07:55.081Z,4.03
2023-03-13T17:10:26.864Z,7.70
2023-03-13T17:12:54.971Z,7.03
2023-03-13T17:15:23.893Z,5.10
2023-03-13T17:17:53.388Z,5.33
2023-03-13T17:20:23.872Z,5.13
2023-03-13T17:22:53.575Z,8.87
2023-03-13T17:25:21.606Z,4.67
2023-03-13T17:27:51.052Z,6.27
2023-03-13T17:30:22.368Z,7.63
2023-03-13T17:32:50.856Z,6.23
2023-03-13T17:35:20.316Z,6.40
2023-03-13T17:37:48.973Z,7.67
2023-03-13T17:40:18.963Z,5.60
2023-03-13T17:42:46.813Z,8.37
2023-03-13T17:45:16.612Z,5.63
2023-03-13T17:47:45.080Z,6.17
2023-03-13T17:50:18.925Z,6.23
2023-03-13T17:52:47.375Z,5.30
2023-03-13T17:55:15.700Z,6.53
2023-03-13T17:57:44.350Z,7.13
2023-03-13T18:00:22.040Z,6.67
2023-03-13T18:02:50.421Z,5.93
2023-03-13T18:05:19.094Z,7.83
2023-03-13T18:07:47.747Z,4.07
2023-03-13T18:10:19.975Z,5.73
2023-03-13T18:12:48.164Z,5.67
2023-03-13T18:15:18.083Z,6.13
2023-03-13T18:17:46.410Z,6.67
2023-03-13T18:20:19.606Z,4.60
2023-03-13T18:22:47.968Z,5.43
2023-03-13T18:25:16.146Z,4.73
2023-03-13T18:27:44.239Z,5.10
2023-03-13T18:30:16.661Z,5.97
2023-03-13T18:32:46.876Z,4.97
2023-03-13T18:35:15.765Z,6.30
2023-03-13T18:37:45.202Z,5.47
2023-03-13T18:40:18.218Z,6.07
2023-03-13T18:42:46.090Z,6.37
2023-03-13T18:45:18.173Z,6.73
2023-03-13T18:47:48.490Z,5.03
2023-03-13T18:50:28.456Z,6.60
2023-03-13T18:52:59.052Z,5.80
2023-03-13T18:55:30.529Z,5.07
2023-03-13T18:57:59.046Z,5.17
2023-03-13T19:00:28.627Z,5.67
2023-03-13T19:02:58.251Z,4.03
2023-03-13T19:05:26.139Z,3.80
2023-03-13T19:07:54.364Z,6.07
2023-03-13T19:10:24.613Z,5.33
2023-03-13T19:12:53.207Z,3.60
2023-03-13T19:15:22.024Z,5.23
2023-03-13T19:17:49.984Z,3.60
2023-03-13T19:20:37.325Z,5.20
2023-03-13T19:23:05.298Z,5.30
2023-03-13T19:25:34.534Z,3.80
2023-03-13T19:28:02.447Z,4.97
2023-03-13T19:30:30.518Z,5.07
2023-03-13T19:32:58.855Z,4.33
2023-03-13T19:35:26.972Z,5.73
2023-03-13T19:37:56.460Z,5.47
2023-03-13T19:40:28.527Z,5.40
2023-03-13T19:42:56.432Z,4.63
2023-03-13T19:45:24.660Z,4.47
2023-03-13T19:47:52.645Z,4.27
2023-03-13T19:50:22.385Z,3.33
2023-03-13T19:52:50.391Z,3.27
2023-03-13T19:55:20.198Z,3.00
2023-03-13T19:57:48.339Z,2.37
2023-03-13T20:00:21.140Z,2.00
2023-03-13T20:02:49.533Z,2.50
2023-03-13T20:05:18.517Z,2.43
2023-03-13T20:07:47.754Z,2.00
2023-03-13T20:10:16.041Z,2.43
2023-03-13T20:12:45.547Z,1.70
2023-03-13T20:15:14.241Z,1.40
2023-03-13T20:17:42.339Z,2.43
2023-03-13T20:20:13.650Z,1.47
2023-03-13T20:22:41.679Z,2.03
2023-03-13T20:25:10.473Z,2.70
2023-03-13T20:27:39.196Z,1.60
2023-03-13T20:30:10.216Z,1.47
2023-03-13T20:32:46.218Z,2.80
2023-03-13T20:35:25.051Z,2.47
2023-03-13T20:37:54.634Z,2.87
2023-03-13T20:40:22.842Z,4.47
2023-03-13T20:42:52.107Z,2.27
2023-03-13T20:45:21.473Z,3.23
2023-03-13T20:47:49.488Z,3.60
2023-03-13T20:50:19.630Z,2.50
2023-03-13T20:52:48.739Z,3.10
2023-03-13T20:55:17.029Z,3.43
2023-03-13T20:57:44.901Z,2.87
2023-03-13T21:00:13.683Z,3.10
2023-03-13T21:02:43.663Z,3.57
2023-03-13T21:05:11.638Z,2.77
2023-03-13T21:07:42.116Z,1.43
2023-03-13T21:10:11.657Z,2.60
2023-03-13T21:12:39.755Z,2.93
2023-03-13T21:15:09.663Z,3.30
2023-03-13T21:17:37.915Z,2.10
2023-03-13T21:20:11.764Z,2.40
2023-03-13T21:22:40.112Z,3.70
2023-03-13T21:25:09.110Z,1.83
2023-03-13T21:27:37.518Z,2.30
2023-03-13T21:30:07.526Z,2.57
2023-03-13T21:32:37.942Z,3.63
2023-03-13T21:35:07.876Z,2.87
2023-03-13T21:37:36.265Z,3.20
2023-03-13T21:40:06.488Z,2.80
2023-03-13T21:42:36.117Z,2.10
2023-03-13T21:45:04.041Z,2.27
2023-03-13T21:47:36.689Z,2.83
2023-03-13T21:50:08.434Z,3.93
2023-03-13T21:52:40.847Z,2.53
2023-03-13T21:55:11.281Z,2.70
2023-03-13T21:57:39.249Z,1.10
2023-03-13T22:00:08.978Z,2.23
2023-03-13T22:02:37.771Z,1.87
2023-03-13T22:05:08.587Z,2.20
2023-03-13T22:07:38.872Z,2.93
2023-03-13T22:10:07.697Z,2.20
2023-03-13T22:12:37.288Z,1.97
2023-03-13T22:15:05.980Z,2.70
2023-03-13T22:17:34.038Z,2.47
2023-03-13T22:20:02.052Z,3.00
2023-03-13T22:22:32.352Z,2.90
2023-03-13T22:25:00.509Z,2.73
2023-03-13T22:27:28.461Z,2.70
2023-03-13T22:29:57.112Z,2.70
2023-03-13T22:32:26.993Z,2.73
2023-03-13T22:34:55.082Z,3.17
2023-03-13T22:37:26.715Z,2.63
2023-03-13T22:39:56.549Z,2.63
2023-03-13T22:42:25.116Z,3.60
2023-03-13T22:44:55.148Z,3.30
2023-03-13T22:47:23.816Z,2.50
2023-03-13T22:49:52.554Z,2.30
2023-03-13T22:52:21.397Z,1.97
2023-03-13T22:54:49.371Z,2.40
2023-03-13T22:57:18.747Z,2.00
2023-03-13T22:59:46.745Z,1.97
2023-03-13T23:02:14.956Z,1.87
2023-03-13T23:04:43.275Z,2.13
2023-03-13T23:07:12.305Z,1.80
2023-03-13T23:09:40.296Z,2.10
2023-03-13T23:12:08.259Z,2.33
2023-03-13T23:14:37.697Z,2.93
2023-03-13T23:17:06.007Z,2.13
2023-03-13T23:19:35.591Z,1.93
2023-03-13T23:22:03.513Z,2.53
2023-03-13T23:24:31.394Z,2.90
2023-03-13T23:26:59.294Z,2.10
2023-03-13T23:29:27.308Z,2.37
2023-03-13T23:31:57.035Z,2.60
2023-03-13T23:34:25.288Z,2.63
2023-03-13T23:36:54.457Z,2.30
2023-03-13T23:39:25.068Z,1.83
2023-03-13T23:41:53.160Z,2.23
2023-03-13T23:44:21.232Z,2.20
2023-03-13T23:46:49.231Z,2.47
2023-03-13T23:49:18.831Z,2.03
2023-03-13T23:51:46.696Z,2.47
2023-03-13T23:54:14.724Z,2.03
2023-03-13T23:56:42.773Z,2.23
2023-03-13T23:59:10.705Z,2.33
